createdAt,value
2018-02-23T08:39:18.210Z,88.28
2018-02-23T08:40:20.055Z,87.99
2018-02-23T08:41:21.925Z,87.81
2018-02-23T08:42:23.797Z,87.99
2018-02-23T08:43:25.602Z,88.09
2018-02-23T08:44:27.392Z,87.90
2018-02-23T08:45:29.258Z,87.62
2018-02-23T08:46:31.136Z,87.81
2018-02-23T08:47:33.001Z,87.81
2018-02-23T08:48:47.135Z,87.99
2018-02-23T08:49:48.990Z,87.24
2018-02-23T08:50:50.845Z,87.24
2018-02-23T08:51:52.711Z,86.77
2018-02-23T08:52:54.524Z,86.58
2018-02-23T08:53:56.318Z,86.53
2018-02-23T08:54:58.174Z,86.15
2018-02-23T08:56:00.041Z,85.96
2018-02-23T08:57:01.916Z,85.77
2018-02-23T08:58:16.054Z,84.55
2018-02-23T08:59:17.902Z,84.27
2018-02-23T09:00:19.768Z,83.51
2018-02-23T09:01:21.627Z,84.08
2018-02-23T09:02:23.426Z,83.89
2018-02-23T09:03:25.240Z,83.23
2018-02-23T09:04:27.108Z,83.33
2018-02-23T09:05:28.971Z,83.61
2018-02-23T09:06:30.923Z,83.61
2018-02-23T09:07:45.116Z,83.33
2018-02-23T09:08:47.000Z,83.33
2018-02-23T09:09:48.882Z,82.57
2018-02-23T09:10:50.763Z,81.91
2018-02-23T09:11:52.654Z,81.72
2018-02-23T09:12:54.423Z,81.72
2018-02-23T09:13:56.284Z,81.20
2018-02-23T09:14:58.164Z,81.38
2018-02-23T09:16:00.031Z,81.67
2018-02-23T09:17:14.228Z,80.91
2018-02-23T09:18:16.092Z,80.91
2018-02-23T09:19:17.974Z,80.34
2018-02-23T09:20:19.841Z,79.11
2018-02-23T09:21:21.656Z,78.55
2018-02-23T09:22:23.478Z,78.36
2018-02-23T09:23:25.342Z,78.64
2018-02-23T09:24:27.207Z,78.55
2018-02-23T09:25:29.091Z,78.55
2018-02-23T09:26:43.221Z,78.17
2018-02-23T09:27:45.083Z,78.55
2018-02-23T09:28:46.969Z,78.64
2018-02-23T09:29:48.853Z,78.17
2018-02-23T09:30:50.667Z,78.08
2018-02-23T09:31:52.488Z,76.95
2018-02-23T09:32:54.348Z,77.13
2018-02-23T09:33:56.232Z,76.95
2018-02-23T09:34:58.117Z,76.85
2018-02-23T09:36:12.251Z,76.28
2018-02-23T09:37:14.138Z,76.85
2018-02-23T09:38:16.018Z,76.95
2018-02-23T09:39:17.884Z,76.76
2018-02-23T09:40:19.703Z,77.04
2018-02-23T09:41:21.500Z,77.89
2018-02-23T09:42:23.385Z,77.98
2018-02-23T09:43:25.262Z,77.89
2018-02-23T09:44:27.125Z,77.80
2018-02-23T09:45:41.253Z,77.61
2018-02-23T09:46:43.118Z,78.17
2018-02-23T09:47:44.999Z,77.98
2018-02-23T09:48:46.866Z,77.32
2018-02-23T09:49:48.661Z,77.04
2018-02-23T09:50:50.480Z,77.32
2018-02-23T09:51:52.340Z,77.04
2018-02-23T09:52:54.204Z,77.42
2018-02-23T09:53:56.063Z,77.42
2018-02-23T09:55:10.398Z,77.23
2018-02-23T09:56:12.263Z,77.51
2018-02-23T09:57:14.121Z,76.66
2018-02-23T09:58:15.981Z,76.32
2018-02-23T09:59:17.781Z,75.34
2018-02-23T10:00:19.595Z,74.43
2018-02-23T10:01:21.483Z,74.40
2018-02-23T10:02:23.363Z,75.15
2018-02-23T10:03:25.227Z,75.62
2018-02-23T10:04:39.402Z,75.15
2018-02-23T10:05:41.265Z,75.43
2018-02-23T10:06:43.151Z,75.53
2018-02-23T10:07:45.036Z,76.00
2018-02-23T10:08:46.856Z,76.19
2018-02-23T10:09:48.673Z,76.66
2018-02-23T10:10:50.587Z,76.76
2018-02-23T10:11:52.394Z,76.85
2018-02-23T10:12:54.256Z,75.81
2018-02-23T10:14:08.380Z,75.71
2018-02-23T10:15:10.248Z,76.38
2018-02-23T10:16:12.136Z,76.38
2018-02-23T10:17:13.993Z,76.47
2018-02-23T10:18:15.795Z,75.81
2018-02-23T10:19:17.610Z,75.53
2018-02-23T10:20:19.472Z,75.90
2018-02-23T10:21:21.341Z,75.71
2018-02-23T10:22:23.232Z,76.28
2018-02-23T10:23:37.435Z,76.95
2018-02-23T10:24:39.256Z,76.95
2018-02-23T10:25:41.146Z,77.23
2018-02-23T10:26:43.066Z,77.32
2018-02-23T10:27:44.909Z,76.95
2018-02-23T10:28:46.727Z,76.85
2018-02-23T10:29:48.625Z,77.32
2018-02-23T10:30:50.511Z,77.13
2018-02-23T10:31:52.435Z,76.76
2018-02-23T10:33:06.632Z,76.95
2018-02-23T10:34:08.553Z,76.51
2018-02-23T10:35:10.470Z,75.15
2018-02-23T10:36:12.408Z,75.34
2018-02-23T10:37:14.244Z,75.24
2018-02-23T10:38:16.069Z,74.90
2018-02-23T10:39:17.963Z,74.21
2018-02-23T10:40:19.848Z,74.02
2018-02-23T10:41:21.736Z,74.30
2018-02-23T10:42:35.868Z,74.11
2018-02-23T10:43:37.747Z,73.93
2018-02-23T10:44:39.614Z,74.30
2018-02-23T10:45:41.478Z,75.05
2018-02-23T10:46:43.291Z,75.34
2018-02-23T10:47:45.088Z,75.53
2018-02-23T10:48:46.952Z,75.24
2018-02-23T10:49:48.837Z,74.49
2018-02-23T10:50:50.752Z,74.87
2018-02-23T10:52:04.990Z,75.05
2018-02-23T10:53:06.952Z,74.68
2018-02-23T10:54:08.881Z,74.58
2018-02-23T10:55:10.799Z,74.68
2018-02-23T10:56:12.665Z,74.49
2018-02-23T10:57:14.535Z,75.24
2018-02-23T10:58:16.444Z,75.62
2018-02-23T10:59:18.359Z,76.28
2018-02-23T11:00:20.274Z,76.85
2018-02-23T11:01:34.479Z,77.13
2018-02-23T11:02:36.388Z,76.85
2018-02-23T11:03:38.362Z,76.19
2018-02-23T11:04:40.291Z,75.90
2018-02-23T11:05:42.126Z,75.71
2018-02-23T11:06:43.968Z,75.71
2018-02-23T11:07:45.842Z,76.00
2018-02-23T11:08:47.708Z,76.00
2018-02-23T11:09:49.581Z,75.81
2018-02-23T11:11:03.755Z,76.00
2018-02-23T11:12:05.617Z,76.00
2018-02-23T11:13:07.965Z,76.38
2018-02-23T11:14:09.847Z,76.85
2018-02-23T11:15:11.646Z,76.76
2018-02-23T11:16:13.465Z,77.04
2018-02-23T11:17:15.345Z,76.47
2018-02-23T11:18:17.212Z,76.47
2018-02-23T11:19:19.067Z,76.95
2018-02-23T11:20:33.199Z,76.38
2018-02-23T11:21:35.089Z,76.81
2018-02-23T11:22:37.019Z,77.56
2018-02-23T11:23:38.862Z,77.61
2018-02-23T11:24:40.662Z,77.98
2018-02-23T11:25:42.536Z,77.61
2018-02-23T11:26:44.384Z,76.95
2018-02-23T11:27:46.262Z,76.85
2018-02-23T11:28:48.123Z,76.85
2018-02-23T11:30:02.276Z,76.85
2018-02-23T11:31:04.189Z,76.76
2018-02-23T11:32:06.077Z,76.95
2018-02-23T11:33:07.938Z,77.04
2018-02-23T11:34:09.741Z,76.95
2018-02-23T11:35:11.560Z,76.66
2018-02-23T11:36:13.439Z,76.47
2018-02-23T11:37:15.332Z,76.19
2018-02-23T11:38:17.156Z,76.38
2018-02-23T11:39:31.381Z,75.71
2018-02-23T11:40:33.488Z,75.71
2018-02-23T11:41:35.372Z,76.00
2018-02-23T11:42:37.282Z,75.90
2018-02-23T11:43:39.117Z,75.24
2018-02-23T11:44:40.902Z,76.28
2018-02-23T11:45:42.802Z,76.38
2018-02-23T11:46:44.683Z,76.28
2018-02-23T11:47:46.568Z,76.57
2018-02-23T11:49:00.764Z,76.28
2018-02-23T11:50:02.635Z,76.57
2018-02-23T11:51:04.511Z,75.90
2018-02-23T11:52:06.406Z,75.05
2018-02-23T11:53:08.240Z,75.05
2018-02-23T11:54:10.042Z,75.05
2018-02-23T11:55:11.921Z,75.05
2018-02-23T11:56:13.779Z,75.34
2018-02-23T11:57:15.642Z,75.34
2018-02-23T11:58:29.795Z,75.34
2018-02-23T11:59:31.674Z,75.53
2018-02-23T12:00:33.555Z,75.34
2018-02-23T12:01:35.477Z,75.34
2018-02-23T12:02:37.305Z,74.77
2018-02-23T12:03:39.112Z,74.40
2018-02-23T12:04:40.995Z,74.49
2018-02-23T12:05:42.875Z,74.02
2018-02-23T12:06:44.762Z,73.83
2018-02-23T12:07:58.947Z,73.55
2018-02-23T12:09:00.852Z,73.58
2018-02-23T12:10:02.751Z,73.11
2018-02-23T12:11:04.612Z,73.21
2018-02-23T12:12:06.460Z,72.92
2018-02-23T12:13:08.298Z,72.92
2018-02-23T12:14:10.193Z,72.83
2018-02-23T12:15:12.095Z,73.11
2018-02-23T12:16:13.976Z,73.02
2018-02-23T12:17:28.158Z,73.02
2018-02-23T12:18:30.040Z,72.73
2018-02-23T12:19:31.918Z,72.88
2018-02-23T12:20:33.825Z,72.69
2018-02-23T12:21:35.616Z,72.79
2018-02-23T12:22:37.411Z,73.17
2018-02-23T12:23:39.295Z,73.39
2018-02-23T12:24:41.178Z,73.21
2018-02-23T12:25:43.057Z,72.69
2018-02-23T12:26:57.185Z,72.98
2018-02-23T12:27:59.086Z,72.79
2018-02-23T12:29:00.999Z,73.36
2018-02-23T12:30:02.901Z,73.64
2018-02-23T12:31:04.696Z,74.21
2018-02-23T12:32:06.490Z,73.74
2018-02-23T12:33:08.364Z,73.68
2018-02-23T12:34:10.239Z,74.24
2018-02-23T12:35:12.108Z,73.02
2018-02-23T12:36:26.340Z,73.17
2018-02-23T12:37:28.225Z,72.88
2018-02-23T12:38:30.103Z,72.79
2018-02-23T12:39:31.968Z,73.64
2018-02-23T12:40:33.793Z,73.93
2018-02-23T12:41:35.595Z,74.40
2018-02-23T12:42:37.478Z,74.11
2018-02-23T12:43:39.355Z,74.30
2018-02-23T12:44:41.216Z,74.21
2018-02-23T12:45:55.416Z,73.58
2018-02-23T12:46:57.276Z,73.49
2018-02-23T12:47:59.146Z,73.39
2018-02-23T12:49:01.022Z,73.39
2018-02-23T12:50:02.817Z,72.92
2018-02-23T12:51:04.632Z,72.55
2018-02-23T12:52:06.498Z,72.36
2018-02-23T12:53:08.409Z,72.73
2018-02-23T12:54:10.539Z,72.36
2018-02-23T12:55:24.713Z,72.45
2018-02-23T12:56:26.590Z,72.36
2018-02-23T12:57:28.439Z,72.36
2018-02-23T12:58:30.339Z,72.45
2018-02-23T12:59:32.132Z,72.17
2018-02-23T13:00:33.947Z,72.07
2018-02-23T13:01:35.814Z,72.26
2018-02-23T13:02:37.693Z,72.45
2018-02-23T13:03:39.557Z,72.26
2018-02-23T13:04:53.687Z,72.22
2018-02-23T13:05:55.615Z,72.79
2018-02-23T13:06:57.524Z,73.07
2018-02-23T13:07:59.384Z,72.98
2018-02-23T13:09:01.227Z,72.88
2018-02-23T13:10:03.046Z,73.21
2018-02-23T13:11:04.908Z,73.02
2018-02-23T13:12:06.787Z,72.73
2018-02-23T13:13:08.647Z,72.45
2018-02-23T13:14:22.830Z,72.51
2018-02-23T13:15:24.713Z,72.32
2018-02-23T13:16:26.595Z,72.51
2018-02-23T13:17:28.480Z,72.88
2018-02-23T13:18:30.290Z,72.41
2018-02-23T13:19:32.092Z,73.36
2018-02-23T13:20:33.948Z,73.55
2018-02-23T13:21:35.809Z,73.26
2018-02-23T13:22:37.672Z,74.11
2018-02-23T13:23:51.873Z,73.55
2018-02-23T13:24:53.730Z,73.93
2018-02-23T13:25:55.595Z,73.26
2018-02-23T13:26:57.462Z,73.17
2018-02-23T13:27:59.259Z,73.83
2018-02-23T13:29:01.073Z,73.36
2018-02-23T13:30:02.939Z,73.93
2018-02-23T13:31:04.818Z,73.93
2018-02-23T13:32:06.677Z,74.02
2018-02-23T13:33:20.811Z,73.55
2018-02-23T13:34:22.693Z,74.02
2018-02-23T13:35:24.578Z,74.11
2018-02-23T13:36:26.471Z,74.02
2018-02-23T13:37:28.233Z,74.21
2018-02-23T13:38:30.029Z,74.21
2018-02-23T13:39:31.893Z,73.93
2018-02-23T13:40:33.782Z,73.74
2018-02-23T13:41:35.658Z,73.55
2018-02-23T13:42:49.785Z,73.93
2018-02-23T13:43:51.646Z,73.74
2018-02-23T13:44:53.508Z,74.21
2018-02-23T13:45:55.367Z,73.74
2018-02-23T13:46:57.164Z,73.83
2018-02-23T13:47:58.980Z,74.68
2018-02-23T13:49:00.864Z,74.30
2018-02-23T13:50:02.748Z,74.40
2018-02-23T13:51:04.626Z,74.11
2018-02-23T13:52:18.756Z,74.21
2018-02-23T13:53:20.617Z,74.02
2018-02-23T13:54:22.493Z,74.02
2018-02-23T13:55:24.362Z,74.21
2018-02-23T13:56:26.172Z,74.02
2018-02-23T13:57:27.973Z,73.74
2018-02-23T13:58:29.836Z,74.02
2018-02-23T13:59:31.716Z,73.55
2018-02-23T14:00:33.597Z,73.36
2018-02-23T14:01:47.773Z,74.21
2018-02-23T14:02:49.636Z,74.02
2018-02-23T14:03:51.521Z,74.21
2018-02-23T14:04:53.377Z,74.40
2018-02-23T14:05:55.177Z,73.74
2018-02-23T14:06:56.984Z,73.93
2018-02-23T14:07:58.858Z,73.83
2018-02-23T14:09:00.727Z,73.36
2018-02-23T14:10:02.607Z,73.55
2018-02-23T14:11:16.758Z,73.83
2018-02-23T14:12:18.643Z,73.83
2018-02-23T14:13:20.530Z,73.55
2018-02-23T14:14:22.412Z,74.21
2018-02-23T14:15:24.231Z,74.21
2018-02-23T14:16:26.027Z,73.55
2018-02-23T14:17:27.911Z,72.88
2018-02-23T14:18:29.797Z,72.60
2018-02-23T14:19:31.679Z,72.88
2018-02-23T14:20:45.829Z,73.26
2018-02-23T14:21:47.689Z,72.79
2018-02-23T14:22:49.548Z,72.98
2018-02-23T14:23:51.405Z,72.88
2018-02-23T14:24:53.198Z,72.98
2018-02-23T14:25:54.998Z,73.07
2018-02-23T14:26:56.876Z,73.26
2018-02-23T14:27:58.734Z,73.45
2018-02-23T14:29:00.615Z,73.55
2018-02-23T14:30:14.744Z,73.26
2018-02-23T14:31:16.630Z,73.36
2018-02-23T14:32:18.486Z,73.26
2018-02-23T14:33:20.364Z,73.64
2018-02-23T14:34:22.159Z,74.21
2018-02-23T14:35:23.955Z,74.21
2018-02-23T14:36:25.815Z,73.83
2018-02-23T14:37:27.672Z,73.36
2018-02-23T14:38:29.532Z,73.55
2018-02-23T14:39:43.662Z,73.36
2018-02-23T14:40:45.518Z,72.69
2018-02-23T14:41:47.379Z,72.51
2018-02-23T14:42:49.260Z,72.22
2018-02-23T14:43:51.059Z,71.75
2018-02-23T14:44:52.871Z,71.56
2018-02-23T14:45:54.733Z,72.03
2018-02-23T14:46:56.613Z,71.56
2018-02-23T14:47:58.489Z,71.19
2018-02-23T14:49:12.619Z,70.90
2018-02-23T14:50:14.496Z,71.00
2018-02-23T14:51:16.352Z,71.19
2018-02-23T14:52:18.216Z,71.09
2018-02-23T14:53:20.008Z,71.28
2018-02-23T14:54:21.807Z,71.00
2018-02-23T14:55:23.666Z,70.72
2018-02-23T14:56:25.546Z,71.09
2018-02-23T14:57:27.404Z,71.09
2018-02-23T14:58:41.529Z,71.00
2018-02-23T14:59:43.383Z,71.28
2018-02-23T15:00:45.244Z,70.90
2018-02-23T15:01:47.130Z,71.19
2018-02-23T15:02:48.928Z,70.81
2018-02-23T15:03:50.725Z,71.28
2018-02-23T15:04:52.607Z,71.75
2018-02-23T15:05:54.481Z,71.47
2018-02-23T15:06:56.349Z,71.75
2018-02-23T15:08:10.478Z,72.03
2018-02-23T15:09:12.340Z,72.22
2018-02-23T15:10:14.222Z,72.13
2018-02-23T15:11:16.108Z,72.32
2018-02-23T15:12:17.930Z,72.41
2018-02-23T15:13:19.747Z,72.32
2018-02-23T15:14:21.605Z,72.22
2018-02-23T15:15:23.469Z,72.51
2018-02-23T15:16:25.325Z,72.13
2018-02-23T15:17:39.488Z,72.22
2018-02-23T15:18:41.316Z,72.03
2018-02-23T15:19:43.202Z,71.66
2018-02-23T15:20:45.059Z,71.37
2018-02-23T15:21:46.868Z,71.19
2018-02-23T15:22:48.689Z,71.37
2018-02-23T15:23:50.570Z,71.00
2018-02-23T15:24:52.431Z,71.00
2018-02-23T15:25:54.310Z,71.19
2018-02-23T15:27:08.461Z,71.19
2018-02-23T15:28:10.323Z,71.28
2018-02-23T15:29:12.192Z,71.28
2018-02-23T15:30:14.081Z,71.00
2018-02-23T15:31:15.877Z,71.28
2018-02-23T15:32:17.696Z,71.19
2018-02-23T15:33:19.548Z,71.00
2018-02-23T15:34:21.408Z,71.28
2018-02-23T15:35:23.291Z,71.09
2018-02-23T15:36:37.417Z,71.66
2018-02-23T15:37:39.301Z,71.47
2018-02-23T15:38:41.172Z,71.09
2018-02-23T15:39:43.056Z,71.00
2018-02-23T15:40:44.851Z,71.09
2018-02-23T15:41:46.676Z,70.72
2018-02-23T15:42:48.552Z,71.09
2018-02-23T15:43:50.415Z,71.19
2018-02-23T15:44:52.277Z,71.47
2018-02-23T15:46:06.402Z,71.75
2018-02-23T15:47:08.279Z,71.56
2018-02-23T15:48:10.142Z,71.47
2018-02-23T15:49:12.018Z,71.66
2018-02-23T15:50:13.809Z,71.56
2018-02-23T15:51:15.602Z,71.37
2018-02-23T15:52:17.462Z,72.22
2018-02-23T15:53:19.323Z,71.94
2018-02-23T15:54:21.181Z,72.13
2018-02-23T15:55:35.307Z,71.56
2018-02-23T15:56:37.188Z,71.66
2018-02-23T15:57:39.043Z,71.66
2018-02-23T15:58:40.904Z,71.47
2018-02-23T15:59:42.719Z,71.56
2018-02-23T16:00:44.513Z,72.13
2018-02-23T16:01:46.377Z,72.41
2018-02-23T16:02:48.255Z,72.41
2018-02-23T16:03:50.109Z,71.84
2018-02-23T16:05:04.236Z,72.22
2018-02-23T16:06:06.092Z,72.32
2018-02-23T16:07:07.949Z,72.22
2018-02-23T16:08:09.825Z,72.22
2018-02-23T16:09:11.623Z,72.69
2018-02-23T16:10:13.436Z,72.32
2018-02-23T16:11:15.294Z,72.60
2018-02-23T16:12:17.152Z,72.32
2018-02-23T16:13:19.024Z,72.60
2018-02-23T16:14:33.270Z,72.69
2018-02-23T16:15:35.115Z,72.79
2018-02-23T16:16:36.960Z,72.79
2018-02-23T16:17:38.832Z,73.07
2018-02-23T16:18:40.646Z,73.17
2018-02-23T16:19:42.434Z,72.88
2018-02-23T16:20:44.292Z,72.98
2018-02-23T16:21:46.147Z,73.36
2018-02-23T16:22:48.027Z,73.45
2018-02-23T16:24:02.149Z,73.55
2018-02-23T16:25:04.024Z,73.60
2018-02-23T16:26:05.884Z,73.69
2018-02-23T16:27:07.760Z,73.41
2018-02-23T16:28:09.556Z,73.88
2018-02-23T16:29:11.409Z,73.98
2018-02-23T16:30:13.221Z,73.98
2018-02-23T16:31:15.082Z,74.55
2018-02-23T16:32:16.954Z,74.64
2018-02-23T16:33:31.084Z,74.07
2018-02-23T16:34:32.961Z,74.26
2018-02-23T16:35:34.838Z,74.26
2018-02-23T16:36:36.687Z,74.55
2018-02-23T16:37:38.479Z,74.36
2018-02-23T16:38:40.279Z,74.45
2018-02-23T16:39:42.157Z,74.45
2018-02-23T16:40:44.026Z,74.26
2018-02-23T16:41:45.884Z,74.64
2018-02-23T16:43:00.079Z,74.26
2018-02-23T16:44:01.950Z,74.26
2018-02-23T16:45:03.806Z,74.36
2018-02-23T16:46:05.663Z,74.55
2018-02-23T16:47:07.454Z,74.36
2018-02-23T16:48:09.244Z,74.17
2018-02-23T16:49:11.104Z,74.45
2018-02-23T16:50:12.975Z,74.45
2018-02-23T16:51:14.832Z,74.07
2018-02-23T16:52:29.006Z,74.64
2018-02-23T16:53:30.857Z,74.55
2018-02-23T16:54:32.721Z,75.11
2018-02-23T16:55:34.560Z,74.83
2018-02-23T16:56:36.357Z,75.02
2018-02-23T16:57:38.165Z,75.02
2018-02-23T16:58:40.023Z,75.40
2018-02-23T16:59:41.899Z,75.40
2018-02-23T17:00:43.757Z,75.49
2018-02-23T17:01:57.900Z,75.40
2018-02-23T17:02:59.774Z,75.49
2018-02-23T17:04:01.649Z,75.11
2018-02-23T17:05:03.503Z,74.92
2018-02-23T17:06:05.290Z,75.11
2018-02-23T17:07:07.086Z,75.11
2018-02-23T17:08:08.955Z,75.40
2018-02-23T17:09:10.830Z,74.64
2018-02-23T17:10:12.684Z,74.92
2018-02-23T17:11:26.806Z,75.11
2018-02-23T17:12:28.685Z,75.02
2018-02-23T17:13:30.560Z,75.49
2018-02-23T17:14:32.417Z,75.68
2018-02-23T17:15:34.220Z,75.21
2018-02-23T17:16:36.028Z,75.49
2018-02-23T17:17:37.881Z,75.30
2018-02-23T17:18:39.731Z,75.49
2018-02-23T17:19:41.591Z,75.68
2018-02-23T17:20:55.710Z,75.68
2018-02-23T17:21:57.586Z,76.25
2018-02-23T17:22:59.439Z,75.49
2018-02-23T17:24:01.301Z,76.15
2018-02-23T17:25:03.102Z,75.96
2018-02-23T17:26:04.912Z,75.59
2018-02-23T17:27:06.768Z,75.49
2018-02-23T17:28:08.671Z,75.59
2018-02-23T17:29:10.540Z,75.78
2018-02-23T17:30:24.673Z,75.59
2018-02-23T17:31:26.512Z,75.68
2018-02-23T17:32:28.367Z,75.68
2018-02-23T17:33:30.252Z,75.96
2018-02-23T17:34:32.063Z,76.25
2018-02-23T17:35:33.855Z,76.25
2018-02-23T17:36:35.711Z,76.43
2018-02-23T17:37:37.565Z,76.06
2018-02-23T17:38:39.426Z,75.96
2018-02-23T17:39:53.563Z,75.87
2018-02-23T17:40:55.423Z,75.78
2018-02-23T17:41:57.299Z,75.78
2018-02-23T17:42:59.155Z,75.87
2018-02-23T17:44:00.970Z,75.96
2018-02-23T17:45:02.775Z,75.78
2018-02-23T17:46:04.626Z,75.96
2018-02-23T17:47:06.484Z,75.96
2018-02-23T17:48:08.339Z,76.15
2018-02-23T17:49:22.460Z,76.25
2018-02-23T17:50:24.338Z,76.06
2018-02-23T17:51:26.210Z,75.96
2018-02-23T17:52:28.084Z,75.59
2018-02-23T17:53:29.892Z,75.78
2018-02-23T17:54:31.687Z,76.15
2018-02-23T17:55:33.622Z,75.49
2018-02-23T17:56:35.431Z,76.15
2018-02-23T17:57:37.277Z,76.15
2018-02-23T17:58:51.397Z,75.49
2018-02-23T17:59:53.254Z,75.30
2018-02-23T18:00:55.125Z,75.40
2018-02-23T18:01:56.988Z,75.49
2018-02-23T18:02:58.770Z,75.49
2018-02-23T18:04:00.558Z,75.40
2018-02-23T18:05:02.411Z,75.78
2018-02-23T18:06:04.264Z,75.30
2018-02-23T18:07:06.123Z,75.49
2018-02-23T18:08:20.317Z,75.21
2018-02-23T18:09:22.193Z,75.78
2018-02-23T18:10:24.064Z,75.78
2018-02-23T18:11:25.935Z,75.59
2018-02-23T18:12:27.721Z,75.59
2018-02-23T18:13:29.512Z,75.59
2018-02-23T18:14:31.371Z,75.59
2018-02-23T18:15:33.249Z,75.68
2018-02-23T18:16:35.119Z,75.30
2018-02-23T18:17:49.241Z,75.40
2018-02-23T18:18:51.108Z,75.30
2018-02-23T18:19:52.952Z,75.59
2018-02-23T18:20:54.806Z,75.96
2018-02-23T18:21:56.616Z,76.15
2018-02-23T18:22:58.407Z,76.34
2018-02-23T18:24:00.297Z,76.06
2018-02-23T18:25:02.169Z,75.96
2018-02-23T18:26:04.045Z,75.96
2018-02-23T18:27:18.237Z,75.87
2018-02-23T18:28:20.108Z,76.15
2018-02-23T18:29:21.965Z,76.15
2018-02-23T18:30:23.843Z,76.15
2018-02-23T18:31:25.628Z,76.06
2018-02-23T18:32:27.419Z,75.68
2018-02-23T18:33:29.296Z,76.43
2018-02-23T18:34:31.147Z,76.43
2018-02-23T18:35:33.001Z,76.72
2018-02-23T18:36:47.175Z,76.81
2018-02-23T18:37:49.052Z,76.81
2018-02-23T18:38:50.921Z,76.72
2018-02-23T18:39:52.773Z,76.62
2018-02-23T18:40:54.569Z,76.62
2018-02-23T18:41:56.401Z,76.81
2018-02-23T18:42:58.228Z,76.72
2018-02-23T18:44:00.101Z,76.72
2018-02-23T18:45:01.960Z,76.90
2018-02-23T18:46:16.087Z,76.72
2018-02-23T18:47:17.955Z,76.81
2018-02-23T18:48:19.813Z,76.81
2018-02-23T18:49:21.688Z,77.28
2018-02-23T18:50:23.501Z,77.28
2018-02-23T18:51:25.309Z,77.00
2018-02-23T18:52:27.178Z,76.81
2018-02-23T18:53:29.038Z,77.00
2018-02-23T18:54:30.943Z,77.00
2018-02-23T18:55:45.077Z,77.09
2018-02-23T18:56:46.928Z,77.09
2018-02-23T18:57:48.784Z,77.09
2018-02-23T18:58:50.638Z,77.19
2018-02-23T18:59:52.418Z,77.19
2018-02-23T19:00:54.216Z,77.19
2018-02-23T19:01:56.086Z,77.09
2018-02-23T19:02:57.956Z,77.19
2018-02-23T19:03:59.826Z,77.28
2018-02-23T19:05:13.958Z,77.19
2018-02-23T19:06:15.804Z,76.90
2018-02-23T19:07:17.676Z,76.90
2018-02-23T19:08:19.533Z,76.81
2018-02-23T19:09:21.321Z,76.81
2018-02-23T19:10:23.134Z,76.72
2018-02-23T19:11:25.017Z,76.62
2018-02-23T19:12:26.875Z,76.25
2018-02-23T19:13:28.745Z,76.43
2018-02-23T19:14:42.912Z,76.53
2018-02-23T19:15:44.723Z,76.34
2018-02-23T19:16:46.602Z,76.43
2018-02-23T19:17:48.471Z,76.53
2018-02-23T19:18:50.264Z,76.25
2018-02-23T19:19:52.072Z,76.34
2018-02-23T19:20:53.926Z,76.62
2018-02-23T19:21:55.779Z,76.43
2018-02-23T19:22:57.640Z,76.43
2018-02-23T19:24:11.760Z,76.53
2018-02-23T19:25:13.636Z,76.81
2018-02-23T19:26:15.505Z,76.72
2018-02-23T19:27:17.357Z,76.53
2018-02-23T19:28:19.150Z,76.90
2018-02-23T19:29:20.933Z,76.72
2018-02-23T19:30:22.782Z,76.62
2018-02-23T19:31:24.640Z,76.25
2018-02-23T19:32:26.513Z,76.53
2018-02-23T19:33:40.641Z,76.34
2018-02-23T19:34:42.515Z,76.53
2018-02-23T19:35:44.401Z,75.87
2018-02-23T19:36:46.278Z,75.59
2018-02-23T19:37:48.092Z,76.06
2018-02-23T19:38:49.899Z,76.43
2018-02-23T19:39:51.753Z,76.43
2018-02-23T19:40:53.630Z,76.34
2018-02-23T19:41:55.500Z,76.72
2018-02-23T19:43:09.624Z,76.72
2018-02-23T19:44:11.499Z,76.43
2018-02-23T19:45:13.379Z,76.62
2018-02-23T19:46:15.248Z,76.81
2018-02-23T19:47:17.039Z,76.81
2018-02-23T19:48:18.848Z,76.72
2018-02-23T19:49:20.703Z,76.62
2018-02-23T19:50:22.557Z,76.62
2018-02-23T19:51:24.428Z,76.43
2018-02-23T19:52:38.533Z,76.53
2018-02-23T19:53:40.409Z,76.68
2018-02-23T19:54:42.255Z,76.77
2018-02-23T19:55:44.116Z,77.15
2018-02-23T19:56:45.924Z,76.87
2018-02-23T19:57:47.736Z,76.96
2018-02-23T19:58:49.589Z,76.87
2018-02-23T19:59:51.439Z,77.62
2018-02-23T20:00:53.295Z,78.66
2018-02-23T20:02:07.418Z,78.75
2018-02-23T20:03:09.271Z,79.69
2018-02-23T20:04:11.122Z,79.69
2018-02-23T20:05:12.984Z,79.32
2018-02-23T20:06:14.765Z,79.46
2018-02-23T20:07:16.573Z,79.41
2018-02-23T20:08:18.412Z,78.66
2018-02-23T20:09:20.303Z,78.38
2018-02-23T20:10:22.190Z,78.28
2018-02-23T20:11:36.310Z,78.09
2018-02-23T20:12:38.169Z,78.28
2018-02-23T20:13:40.024Z,78.28
2018-02-23T20:14:41.873Z,78.42
2018-02-23T20:15:43.659Z,78.13
2018-02-23T20:16:45.450Z,77.91
2018-02-23T20:17:47.331Z,78.04
2018-02-23T20:18:49.203Z,77.72
2018-02-23T20:19:51.059Z,77.62
2018-02-23T20:21:05.183Z,77.81
2018-02-23T20:22:07.035Z,77.81
2018-02-23T20:23:08.902Z,78.13
2018-02-23T20:24:10.793Z,77.94
2018-02-23T20:25:12.614Z,78.04
2018-02-23T20:26:14.434Z,77.75
2018-02-23T20:27:16.275Z,77.75
2018-02-23T20:28:18.114Z,77.56
2018-02-23T20:29:19.930Z,77.47
2018-02-23T20:30:34.104Z,77.94
2018-02-23T20:31:36.001Z,77.56
2018-02-23T20:32:37.910Z,76.90
2018-02-23T20:33:39.802Z,77.19
2018-02-23T20:34:41.645Z,76.90
2018-02-23T20:35:43.485Z,76.81
2018-02-23T20:36:45.383Z,77.00
2018-02-23T20:37:47.262Z,77.00
2018-02-23T20:38:49.147Z,77.00
2018-02-23T20:40:03.332Z,76.90
2018-02-23T20:41:05.240Z,77.28
2018-02-23T20:42:07.137Z,76.90
2018-02-23T20:43:09.013Z,76.62
2018-02-23T20:44:10.825Z,76.25
2018-02-23T20:45:12.668Z,76.43
2018-02-23T20:46:14.655Z,76.53
2018-02-23T20:47:16.568Z,76.72
2018-02-23T20:48:18.444Z,76.90
2018-02-23T20:49:32.580Z,77.00
2018-02-23T20:50:34.440Z,76.81
2018-02-23T20:51:36.311Z,76.53
2018-02-23T20:52:38.171Z,76.34
2018-02-23T20:53:39.980Z,76.25
2018-02-23T20:54:41.767Z,75.87
2018-02-23T20:55:43.616Z,75.78
2018-02-23T20:56:45.474Z,75.78
2018-02-23T20:57:47.352Z,75.68
2018-02-23T20:59:01.494Z,75.87
2018-02-23T21:00:03.369Z,75.78
2018-02-23T21:01:05.239Z,75.87
2018-02-23T21:02:07.098Z,75.87
2018-02-23T21:03:08.902Z,75.78
2018-02-23T21:04:10.694Z,76.06
2018-02-23T21:05:12.564Z,76.43
2018-02-23T21:06:14.419Z,76.34
2018-02-23T21:07:16.296Z,76.81
2018-02-23T21:08:30.434Z,77.00
2018-02-23T21:09:32.290Z,77.28
2018-02-23T21:10:34.141Z,76.96
2018-02-23T21:11:35.996Z,76.87
2018-02-23T21:12:37.801Z,77.53
2018-02-23T21:13:39.586Z,77.44
2018-02-23T21:14:41.440Z,77.91
